Time;durP1;ratioP1;P1;durP2;ratioP2;P2;SDS_P1;SDS_P2;PMS_P1;PMS_P2;Temp;Humidity;BMP_temperature;BMP_pressure;BME280_temperature;BME280_humidity;BME280_pressure;Samples;Min_cycle;Max_cycle;Signal;HPM_P1;HPM_P2
2023/06/09 00:02:00;;;;;;;21.48;7.13;;;12.10;99.90;;;;;;5011567;28;20046;-72
2023/06/09 00:04:29;;;;;;;22.58;6.78;;;12.00;99.90;;;;;;4971565;28;210802;-72
2023/06/09 00:06:55;;;;;;;24.67;6.50;;;12.10;99.90;;;;;;4976465;28;20069;-71
2023/06/09 00:09:22;;;;;;;24.13;7.18;;;12.10;99.90;;;;;;4981427;28;212276;-71
2023/06/09 00:11:49;;;;;;;21.23;6.15;;;12.00;99.90;;;;;;5007430;28;20049;-72
2023/06/09 00:14:15;;;;;;;25.83;7.00;;;12.00;99.90;;;;;;4982530;28;205172;-71
2023/06/09 00:16:46;;;;;;;22.02;6.03;;;12.00;99.90;;;;;;4981771;28;20443;-72
2023/06/09 00:19:16;;;;;;;22.73;6.50;;;12.00;99.90;;;;;;4945902;28;205654;-72
2023/06/09 00:21:49;;;;;;;22.75;6.72;;;12.10;99.90;;;;;;4995217;28;20491;-70
2023/06/09 00:24:23;;;;;;;19.02;6.30;;;12.10;99.90;;;;;;4952814;28;211185;-71
2023/06/09 00:26:50;;;;;;;23.05;6.43;;;12.10;99.90;;;;;;4999617;28;20064;-72
2023/06/09 00:29:19;;;;;;;25.73;7.13;;;12.20;99.90;;;;;;4946538;28;212430;-71
2023/06/09 00:31:45;;;;;;;21.48;6.68;;;12.20;99.90;;;;;;4997477;28;20053;-72
2023/06/09 00:34:11;;;;;;;28.00;6.85;;;12.20;99.90;;;;;;4947542;28;198653;-71
2023/06/09 00:36:37;;;;;;;22.33;6.93;;;12.20;99.90;;;;;;5016975;28;20050;-72
2023/06/09 00:39:03;;;;;;;27.67;6.78;;;12.20;99.90;;;;;;4981156;28;179449;-72
2023/06/09 00:41:36;;;;;;;20.60;6.95;;;12.30;99.90;;;;;;5025044;28;20073;-72
2023/06/09 00:44:03;;;;;;;26.73;7.32;;;12.20;99.90;;;;;;4966327;28;208439;-72
2023/06/09 00:46:29;;;;;;;28.45;7.35;;;12.30;99.90;;;;;;5010351;28;20502;-72
2023/06/09 00:48:56;;;;;;;21.67;6.70;;;12.20;99.90;;;;;;4954254;28;205887;-72
2023/06/09 00:51:22;;;;;;;21.83;6.45;;;12.30;99.90;;;;;;5003853;28;20058;-72
2023/06/09 00:53:50;;;;;;;21.58;6.68;;;12.30;99.90;;;;;;4938665;28;210529;-73
2023/06/09 00:56:18;;;;;;;24.65;6.70;;;12.30;99.90;;;;;;4996996;28;20059;-72
2023/06/09 00:58:45;;;;;;;22.52;7.45;;;12.20;99.90;;;;;;4959788;28;209992;-71
2023/06/09 01:01:11;;;;;;;22.52;7.00;;;12.30;99.90;;;;;;5002584;28;20555;-72
2023/06/09 01:03:38;;;;;;;21.35;7.30;;;12.20;99.90;;;;;;4964747;28;191146;-72
2023/06/09 01:06:23;;;;;;;24.88;6.90;;;12.30;99.90;;;;;;5005113;28;20522;-72
2023/06/09 01:09:01;;;;;;;21.77;6.60;;;12.20;99.90;;;;;;4974221;28;207244;-73
2023/06/09 01:11:36;;;;;;;22.55;6.72;;;12.20;99.90;;;;;;5007575;28;20058;-71
2023/06/09 01:14:27;;;;;;;23.77;7.25;;;12.20;99.90;;;;;;4949085;28;216986;-71
2023/06/09 01:17:13;;;;;;;23.05;6.68;;;12.20;99.90;;;;;;4988725;28;20054;-71
2023/06/09 01:19:47;;;;;;;21.13;6.75;;;12.10;99.90;;;;;;4942979;28;209285;-71
2023/06/09 01:22:36;;;;;;;22.02;7.00;;;12.10;99.90;;;;;;4985883;28;20054;-72
2023/06/09 01:25:37;;;;;;;21.27;6.20;;;12.10;99.90;;;;;;4961018;28;209478;-73
2023/06/09 01:28:11;;;;;;;22.85;7.03;;;12.10;99.90;;;;;;5004394;28;20057;-71
2023/06/09 01:30:40;;;;;;;24.35;6.93;;;12.00;99.90;;;;;;4929672;28;24606;-71
2023/06/09 01:33:13;;;;;;;24.02;7.45;;;12.00;99.90;;;;;;4979491;28;211669;-72
2023/06/09 01:35:40;;;;;;;24.75;7.38;;;11.90;99.90;;;;;;4929578;28;20049;-71
2023/06/09 01:38:07;;;;;;;25.13;7.05;;;11.90;99.90;;;;;;4967807;28;211935;-72
2023/06/09 01:40:34;;;;;;;27.48;7.82;;;11.90;99.90;;;;;;4974449;28;20452;-72
2023/06/09 01:43:02;;;;;;;25.08;7.25;;;11.90;99.90;;;;;;5034261;28;20089;-72
2023/06/09 01:45:28;;;;;;;23.52;7.43;;;11.90;99.90;;;;;;4960959;28;208692;-72
2023/06/09 01:47:55;;;;;;;27.50;7.40;;;11.90;99.90;;;;;;4983301;28;20050;-72
2023/06/09 01:50:58;;;;;;;28.33;7.50;;;11.90;99.90;;;;;;4940252;28;203942;-73
2023/06/09 01:53:33;;;;;;;30.00;7.60;;;11.90;99.90;;;;;;4910574;28;218048;-73
2023/06/09 01:56:29;;;;;;;24.85;8.05;;;11.80;99.90;;;;;;5038643;28;20045;-72
2023/06/09 01:59:00;;;;;;;25.35;8.15;;;11.80;99.90;;;;;;4963662;28;149473;-72
2023/06/09 02:01:27;;;;;;;23.77;8.30;;;11.80;99.90;;;;;;4993940;28;20046;-71
2023/06/09 02:03:55;;;;;;;26.42;8.30;;;11.70;99.90;;;;;;4946692;28;226003;-71
2023/06/09 02:06:21;;;;;;;27.80;8.32;;;11.70;99.90;;;;;;4992379;28;20050;-72
2023/06/09 02:08:48;;;;;;;27.25;8.20;;;11.80;99.90;;;;;;4924458;28;216333;-72
2023/06/09 02:11:15;;;;;;;22.48;7.85;;;11.70;99.90;;;;;;4968219;28;20057;-72
2023/06/09 02:13:41;;;;;;;22.60;7.80;;;11.70;99.90;;;;;;4938009;28;222161;-72
2023/06/09 02:16:07;;;;;;;26.75;8.15;;;11.70;99.90;;;;;;4983397;28;20055;-71
2023/06/09 02:18:33;;;;;;;20.80;7.80;;;11.70;99.90;;;;;;4974253;28;212354;-72
2023/06/09 02:20:59;;;;;;;26.52;7.78;;;11.70;99.90;;;;;;5014774;28;20042;-73
2023/06/09 02:23:26;;;;;;;27.52;8.48;;;11.70;99.90;;;;;;4949567;28;212018;-72
2023/06/09 02:25:52;;;;;;;23.17;8.05;;;11.70;99.90;;;;;;4999599;28;20057;-73
2023/06/09 02:28:18;;;;;;;27.17;8.20;;;11.70;99.90;;;;;;4938170;28;209296;-72
2023/06/09 02:30:45;;;;;;;24.83;8.23;;;11.70;99.90;;;;;;4984449;28;20050;-71
2023/06/09 02:33:14;;;;;;;26.33;8.33;;;11.70;99.90;;;;;;4942177;28;215941;-72
2023/06/09 02:35:40;;;;;;;29.33;8.73;;;11.70;99.90;;;;;;4999506;28;20042;-71
2023/06/09 02:38:06;;;;;;;29.63;8.13;;;11.70;99.90;;;;;;5005212;28;208450;-72
2023/06/09 02:40:33;;;;;;;23.15;8.13;;;11.70;99.90;;;;;;4969719;28;209905;-71
2023/06/09 02:42:59;;;;;;;26.05;8.77;;;11.70;99.90;;;;;;4989087;28;20058;-71
2023/06/09 02:45:26;;;;;;;25.67;8.13;;;11.70;99.90;;;;;;4948996;28;208578;-71
2023/06/09 02:47:52;;;;;;;22.52;7.63;;;11.70;99.90;;;;;;5001426;28;20058;-71
2023/06/09 02:50:18;;;;;;;29.73;8.20;;;11.60;99.90;;;;;;4968182;28;209854;-71
2023/06/09 02:52:44;;;;;;;25.20;8.57;;;11.60;99.90;;;;;;4988736;28;20050;-72
2023/06/09 02:55:11;;;;;;;26.80;8.60;;;11.70;99.90;;;;;;4933517;28;225566;-72
2023/06/09 02:57:37;;;;;;;25.27;8.60;;;11.60;99.90;;;;;;5017390;28;21412;-72
2023/06/09 03:00:06;;;;;;;25.40;8.13;;;11.60;99.90;;;;;;4967379;28;206280;-72
2023/06/09 03:02:34;;;;;;;23.98;8.43;;;11.60;99.90;;;;;;4985772;28;20615;-71
2023/06/09 03:05:00;;;;;;;29.55;8.82;;;11.60;99.90;;;;;;4959045;28;212989;-71
2023/06/09 03:07:26;;;;;;;27.90;9.13;;;11.60;99.90;;;;;;5015288;28;20052;-71
2023/06/09 03:09:52;;;;;;;25.15;8.65;;;11.60;99.90;;;;;;4975224;28;208054;-71
2023/06/09 03:12:18;;;;;;;26.95;8.77;;;11.60;99.90;;;;;;4991518;28;20407;-71
2023/06/09 03:14:44;;;;;;;26.73;8.48;;;11.60;99.90;;;;;;4949491;28;211258;-71
2023/06/09 03:17:10;;;;;;;23.05;9.13;;;11.60;99.90;;;;;;4989293;28;20062;-71
2023/06/09 03:19:37;;;;;;;29.85;9.93;;;11.60;99.90;;;;;;4960318;28;208805;-71
2023/06/09 03:22:03;;;;;;;31.55;9.05;;;11.50;99.90;;;;;;4985843;28;20058;-71
2023/06/09 03:24:29;;;;;;;25.58;9.07;;;11.60;99.90;;;;;;4933950;28;205669;-71
2023/06/09 03:26:55;;;;;;;26.25;9.73;;;11.60;99.90;;;;;;4982320;28;20057;-71
2023/06/09 03:29:22;;;;;;;25.70;9.30;;;11.60;99.90;;;;;;4947940;28;209912;-71
2023/06/09 03:31:48;;;;;;;26.70;9.30;;;11.60;99.90;;;;;;4993123;28;20064;-71
2023/06/09 03:34:14;;;;;;;25.88;9.68;;;11.60;99.90;;;;;;4971712;28;210041;-71
2023/06/09 03:36:41;;;;;;;26.23;9.50;;;11.70;99.90;;;;;;5013836;28;20069;-70
2023/06/09 03:39:08;;;;;;;30.98;10.07;;;11.70;99.90;;;;;;4991058;28;204911;-72
2023/06/09 03:41:34;;;;;;;28.40;9.35;;;11.70;99.90;;;;;;5007758;28;20054;-70
2023/06/09 03:44:00;;;;;;;26.90;9.30;;;11.70;99.90;;;;;;4949253;28;227740;-69
2023/06/09 03:46:26;;;;;;;26.25;10.27;;;11.70;99.90;;;;;;4991853;28;20061;-70
2023/06/09 03:48:52;;;;;;;24.00;9.02;;;11.70;99.90;;;;;;4938714;28;209257;-70
2023/06/09 03:51:20;;;;;;;26.05;9.13;;;11.70;99.90;;;;;;5003659;28;20054;-70
2023/06/09 03:53:46;;;;;;;25.13;8.98;;;11.70;99.90;;;;;;4909508;28;213159;-69
2023/06/09 03:56:13;;;;;;;25.13;10.02;;;11.70;99.90;;;;;;5012266;28;20062;-70
2023/06/09 03:58:39;;;;;;;26.90;9.85;;;11.80;99.90;;;;;;4934355;28;206554;-69
2023/06/09 04:01:10;;;;;;;23.77;9.13;;;11.80;99.90;;;;;;4990392;28;20540;-70
2023/06/09 04:03:37;;;;;;;26.67;8.93;;;11.90;99.90;;;;;;4957120;28;98877;-70
2023/06/09 04:06:04;;;;;;;24.60;8.68;;;11.90;99.90;;;;;;4982094;28;20058;-70
2023/06/09 04:08:30;;;;;;;27.23;8.95;;;11.90;99.90;;;;;;4942260;28;209981;-69
2023/06/09 04:10:56;;;;;;;23.58;10.23;;;12.00;99.90;;;;;;5031716;28;20637;-70
2023/06/09 04:13:22;;;;;;;30.83;9.90;;;12.00;99.90;;;;;;4954736;28;210755;-70
2023/06/09 04:15:48;;;;;;;26.75;9.25;;;12.10;99.90;;;;;;5006419;28;20500;-69
2023/06/09 04:18:15;;;;;;;24.48;9.10;;;12.20;99.90;;;;;;4956664;28;208369;-69
2023/06/09 04:20:42;;;;;;;23.77;8.90;;;12.20;99.90;;;;;;5001530;28;20054;-70
2023/06/09 04:23:09;;;;;;;26.00;8.90;;;12.20;99.90;;;;;;4974817;28;207862;-70
2023/06/09 04:25:35;;;;;;;20.58;8.35;;;12.30;99.90;;;;;;4978032;28;205540;-70
2023/06/09 04:28:05;;;;;;;22.83;8.77;;;12.30;99.90;;;;;;5021452;28;20050;-70
2023/06/09 04:30:34;;;;;;;30.08;9.32;;;12.40;99.90;;;;;;4970650;28;211198;-69
2023/06/09 04:33:01;;;;;;;26.08;8.80;;;12.50;99.90;;;;;;5005894;28;20063;-70
2023/06/09 04:35:27;;;;;;;25.05;8.60;;;12.50;99.90;;;;;;4978016;28;79017;-69
2023/06/09 04:37:54;;;;;;;27.48;9.05;;;12.60;99.90;;;;;;5010350;28;20056;-69
2023/06/09 04:40:25;;;;;;;24.67;9.27;;;12.70;99.90;;;;;;4989814;28;207229;-69
2023/06/09 04:43:01;;;;;;;20.33;8.90;;;12.80;99.90;;;;;;5005211;28;20054;-69
2023/06/09 04:45:34;;;;;;;27.58;9.35;;;12.80;99.90;;;;;;4970006;28;208558;-69
2023/06/09 04:48:03;;;;;;;31.13;9.20;;;12.90;99.90;;;;;;5006652;28;20058;-69
2023/06/09 04:50:32;;;;;;;24.35;9.27;;;12.90;99.90;;;;;;4959044;28;207317;-69
2023/06/09 04:53:03;;;;;;;32.30;10.25;;;12.90;99.90;;;;;;5019571;28;20057;-69
2023/06/09 04:55:30;;;;;;;31.75;9.82;;;13.00;99.90;;;;;;4918887;28;210292;-69
2023/06/09 04:57:57;;;;;;;22.83;8.90;;;13.10;99.90;;;;;;4986918;28;20054;-70
2023/06/09 05:00:26;;;;;;;24.90;8.38;;;13.20;99.90;;;;;;4958974;28;229458;-70
2023/06/09 05:02:53;;;;;;;22.98;9.13;;;13.20;99.90;;;;;;5039556;28;20046;-69
2023/06/09 05:05:20;;;;;;;26.98;9.45;;;13.20;99.90;;;;;;4966371;28;220341;-70
2023/06/09 05:07:47;;;;;;;25.02;9.13;;;13.30;99.90;;;;;;5006291;28;20538;-70
2023/06/09 05:10:13;;;;;;;27.77;9.93;;;13.30;99.90;;;;;;4936171;28;206786;-70
2023/06/09 05:12:39;;;;;;;24.20;8.82;;;13.40;99.90;;;;;;4988289;28;20053;-70
2023/06/09 05:15:07;;;;;;;22.20;9.13;;;13.50;99.90;;;;;;4961221;28;209712;-70
2023/06/09 05:17:34;;;;;;;20.90;9.05;;;13.60;99.90;;;;;;5014534;28;20427;-69
2023/06/09 05:20:01;;;;;;;24.83;9.45;;;13.60;99.90;;;;;;4959970;28;209927;-70
2023/06/09 05:22:27;;;;;;;23.40;9.15;;;13.70;99.90;;;;;;4982230;28;20050;-69
2023/06/09 05:24:53;;;;;;;23.92;9.65;;;13.80;99.90;;;;;;4965508;28;206517;-70
2023/06/09 05:27:19;;;;;;;26.42;9.80;;;13.80;99.90;;;;;;4989782;28;20713;-70
2023/06/09 05:29:45;;;;;;;24.92;9.43;;;13.90;99.90;;;;;;4935370;28;212573;-69
2023/06/09 05:32:11;;;;;;;23.27;9.15;;;14.00;99.90;;;;;;4984731;28;20046;-70
2023/06/09 05:34:37;;;;;;;25.08;9.27;;;14.10;99.90;;;;;;4926827;28;216871;-70
2023/06/09 05:37:04;;;;;;;27.73;9.73;;;14.30;99.90;;;;;;4987933;28;20042;-72
2023/06/09 05:39:30;;;;;;;24.67;9.55;;;14.30;99.90;;;;;;4941716;28;209457;-71
2023/06/09 05:41:57;;;;;;;21.88;8.93;;;14.50;99.90;;;;;;4994996;28;20073;-71
2023/06/09 05:44:23;;;;;;;23.10;8.57;;;14.60;99.90;;;;;;4979322;28;116482;-71
2023/06/09 05:46:49;;;;;;;25.77;8.77;;;14.80;99.90;;;;;;4990794;28;20512;-70
2023/06/09 05:49:16;;;;;;;22.23;8.32;;;14.90;99.90;;;;;;4953323;28;209111;-70
2023/06/09 05:51:42;;;;;;;21.42;7.82;;;15.10;99.90;;;;;;4999264;28;20518;-71
2023/06/09 05:54:09;;;;;;;22.42;7.90;;;15.30;99.90;;;;;;4932632;28;237032;-71
2023/06/09 05:56:37;;;;;;;25.88;8.15;;;15.50;99.90;;;;;;5013973;28;20058;-71
2023/06/09 05:59:04;;;;;;;23.10;7.70;;;15.70;99.90;;;;;;4982022;28;208218;-72
2023/06/09 06:01:34;;;;;;;23.92;8.10;;;16.00;99.90;;;;;;4992808;28;20058;-70
2023/06/09 06:04:00;;;;;;;19.67;7.37;;;16.20;99.90;;;;;;4935441;28;209625;-71
2023/06/09 06:06:26;;;;;;;20.83;7.65;;;16.50;99.90;;;;;;4993510;28;20057;-70
2023/06/09 06:08:52;;;;;;;19.88;7.35;;;16.60;99.90;;;;;;4943166;28;142544;-70
2023/06/09 06:11:18;;;;;;;20.02;7.57;;;16.70;99.90;;;;;;4994689;28;20058;-71
2023/06/09 06:13:44;;;;;;;19.77;7.80;;;16.70;99.90;;;;;;4948511;28;225585;-71
2023/06/09 06:16:11;;;;;;;22.65;7.82;;;16.90;99.90;;;;;;5012311;28;20054;-70
2023/06/09 06:18:37;;;;;;;20.10;7.75;;;17.00;99.90;;;;;;4935051;28;211630;-70
2023/06/09 06:21:03;;;;;;;22.40;7.80;;;17.10;99.90;;;;;;5016695;28;20050;-70
2023/06/09 06:23:29;;;;;;;20.30;7.07;;;17.30;99.90;;;;;;4938103;28;210120;-70
2023/06/09 06:25:55;;;;;;;20.92;7.13;;;17.50;99.90;;;;;;5019340;28;20049;-70
2023/06/09 06:28:21;;;;;;;16.98;7.07;;;17.70;99.90;;;;;;4950498;28;209128;-71
2023/06/09 06:30:49;;;;;;;22.80;8.15;;;17.90;99.90;;;;;;4999231;28;20054;-70
2023/06/09 06:33:16;;;;;;;20.77;8.57;;;18.10;99.90;;;;;;4968994;28;208794;-71
2023/06/09 06:35:42;;;;;;;17.67;7.57;;;18.20;99.90;;;;;;5001691;28;20527;-70
2023/06/09 06:38:08;;;;;;;19.17;7.18;;;18.40;99.90;;;;;;4944265;28;208890;-71
2023/06/09 06:40:34;;;;;;;19.85;7.47;;;18.50;99.90;;;;;;4971101;28;204464;-72
2023/06/09 06:43:00;;;;;;;18.23;7.35;;;18.60;99.90;;;;;;4989338;28;20069;-71
2023/06/09 06:45:27;;;;;;;18.83;7.78;;;18.80;99.90;;;;;;4983950;28;206909;-70
2023/06/09 06:47:53;;;;;;;18.85;7.72;;;19.00;99.90;;;;;;5009703;28;20053;-70
2023/06/09 06:50:20;;;;;;;17.23;7.18;;;19.20;99.90;;;;;;4953647;28;209720;-70
2023/06/09 06:52:48;;;;;;;18.73;7.82;;;19.30;99.90;;;;;;4996518;28;20057;-71
2023/06/09 06:55:14;;;;;;;17.50;6.90;;;19.30;99.90;;;;;;4955314;28;213002;-70
2023/06/09 06:57:40;;;;;;;17.77;7.03;;;19.40;99.90;;;;;;5019515;28;20499;-70
2023/06/09 07:00:09;;;;;;;18.85;6.35;;;19.60;99.90;;;;;;4959437;28;202034;-71
2023/06/09 07:02:35;;;;;;;17.33;6.80;;;19.80;99.90;;;;;;4990765;28;20069;-71
2023/06/09 07:05:03;;;;;;;17.85;6.85;;;20.00;99.90;;;;;;4960520;28;219844;-71
2023/06/09 07:07:29;;;;;;;20.75;6.85;;;20.20;99.90;;;;;;4969253;28;20423;-71
2023/06/09 07:09:55;;;;;;;14.35;6.35;;;20.20;99.90;;;;;;4956909;28;208532;-70
2023/06/09 07:12:21;;;;;;;15.30;6.07;;;20.10;99.90;;;;;;4972944;28;20054;-71
2023/06/09 07:14:48;;;;;;;17.42;5.88;;;20.30;99.90;;;;;;4947834;28;208143;-70
2023/06/09 07:17:14;;;;;;;17.58;6.38;;;20.50;99.90;;;;;;4991229;28;20476;-70
2023/06/09 07:19:40;;;;;;;12.93;5.97;;;20.90;99.90;;;;;;4973244;28;208159;-70
2023/06/09 07:22:06;;;;;;;14.07;6.18;;;21.00;99.90;;;;;;5029902;28;20080;-71
2023/06/09 07:24:32;;;;;;;17.58;6.45;;;21.10;99.90;;;;;;4977667;28;214070;-70
2023/06/09 07:26:58;;;;;;;17.10;5.97;;;21.40;99.90;;;;;;5007953;28;20053;-70
2023/06/09 07:29:25;;;;;;;18.55;6.35;;;21.50;99.90;;;;;;4964533;28;206641;-71
2023/06/09 07:31:52;;;;;;;13.52;6.00;;;21.60;99.90;;;;;;5014405;28;20061;-71
2023/06/09 07:34:18;;;;;;;15.63;5.80;;;21.90;99.90;;;;;;4965032;28;208736;-71
2023/06/09 07:36:50;;;;;;;15.32;5.55;;;22.00;99.70;;;;;;4991574;28;20054;-71
2023/06/09 07:39:17;;;;;;;17.90;5.85;;;22.20;99.50;;;;;;4961954;28;209024;-70
2023/06/09 07:41:43;;;;;;;18.15;5.60;;;22.10;99.20;;;;;;5013569;28;20057;-71
2023/06/09 07:44:09;;;;;;;15.82;5.70;;;22.50;99.40;;;;;;4953088;28;206736;-71
2023/06/09 07:46:35;;;;;;;14.88;5.50;;;22.90;99.40;;;;;;5016498;28;20075;-69
2023/06/09 07:49:02;;;;;;;15.98;5.35;;;23.20;98.80;;;;;;4982735;28;208499;-72
2023/06/09 07:51:29;;;;;;;15.35;4.95;;;23.30;98.70;;;;;;5025723;28;20049;-71
2023/06/09 07:53:55;;;;;;;15.55;5.70;;;23.50;98.00;;;;;;4946540;28;214315;-71
2023/06/09 07:56:21;;;;;;;19.25;5.97;;;23.80;98.00;;;;;;5013531;28;20054;-70
2023/06/09 07:58:49;;;;;;;19.80;5.45;;;23.90;97.30;;;;;;4940651;28;206765;-70
2023/06/09 08:01:15;;;;;;;16.80;5.43;;;23.80;97.40;;;;;;5013744;28;20046;-70
2023/06/09 08:03:41;;;;;;;15.27;5.65;;;24.00;97.00;;;;;;4943637;28;209085;-71
2023/06/09 08:06:10;;;;;;;14.93;5.47;;;24.10;97.20;;;;;;5018849;28;20049;-70
2023/06/09 08:08:37;;;;;;;14.07;5.13;;;24.50;97.20;;;;;;4963556;28;207659;-70
2023/06/09 08:11:03;;;;;;;13.88;5.10;;;24.90;96.80;;;;;;5018234;28;20063;-70
2023/06/09 08:13:30;;;;;;;14.70;5.20;;;25.10;96.30;;;;;;4956386;28;212608;-71
2023/06/09 08:15:56;;;;;;;17.30;5.20;;;25.10;96.10;;;;;;5010202;28;20042;-71
2023/06/09 08:18:22;;;;;;;15.75;5.28;;;25.30;95.90;;;;;;4939622;28;209969;-70
2023/06/09 08:20:48;;;;;;;15.85;4.95;;;25.60;95.40;;;;;;4974303;28;20058;-70
2023/06/09 08:23:16;;;;;;;14.02;4.90;;;25.80;95.30;;;;;;4929715;28;211673;-69
2023/06/09 08:25:42;;;;;;;15.15;4.95;;;25.90;95.00;;;;;;5030125;28;20058;-70
2023/06/09 08:28:08;;;;;;;14.15;4.88;;;26.00;94.60;;;;;;4993924;28;209607;-71
2023/06/09 08:30:34;;;;;;;11.75;4.28;;;26.10;94.30;;;;;;5010575;28;20046;-70
2023/06/09 08:33:01;;;;;;;14.02;4.55;;;26.30;94.50;;;;;;5003236;28;20056;-71
2023/06/09 08:35:31;;;;;;;11.80;4.35;;;26.30;94.30;;;;;;4963143;28;205019;-71
2023/06/09 08:37:58;;;;;;;13.75;4.50;;;26.50;93.80;;;;;;4986056;28;20046;-71
2023/06/09 08:40:24;;;;;;;15.35;4.60;;;26.70;93.40;;;;;;4968522;28;228596;-69
2023/06/09 08:42:55;;;;;;;14.77;4.38;;;27.10;93.40;;;;;;4983734;28;20396;-70
2023/06/09 08:45:22;;;;;;;19.00;4.65;;;27.50;92.80;;;;;;4960020;28;222935;-71
2023/06/09 08:47:52;;;;;;;12.85;3.75;;;27.60;92.60;;;;;;5016518;28;20050;-72
2023/06/09 08:50:20;;;;;;;11.87;4.00;;;27.80;92.70;;;;;;4974647;28;209125;-71
2023/06/09 08:52:48;;;;;;;11.63;3.83;;;27.90;92.10;;;;;;5005101;28;20141;-71
2023/06/09 08:55:15;;;;;;;13.73;3.90;;;27.90;91.40;;;;;;4959908;28;223912;-71
2023/06/09 08:57:42;;;;;;;11.65;3.92;;;28.40;92.00;;;;;;5004458;28;20049;-71
2023/06/09 09:00:09;;;;;;;11.40;4.07;;;28.90;91.60;;;;;;4987768;28;215490;-71
2023/06/09 09:02:36;;;;;;;13.85;3.90;;;29.10;91.40;;;;;;5038307;28;20068;-71
2023/06/09 09:05:02;;;;;;;11.75;4.00;;;29.10;90.90;;;;;;4968821;28;205872;-70
2023/06/09 09:07:29;;;;;;;12.75;4.20;;;29.30;90.40;;;;;;5004911;28;20060;-71
2023/06/09 09:09:55;;;;;;;12.73;4.03;;;29.30;90.10;;;;;;4955243;28;207888;-71
2023/06/09 09:12:21;;;;;;;15.05;4.07;;;29.60;90.10;;;;;;4982960;28;20077;-71
2023/06/09 09:14:47;;;;;;;16.70;4.32;;;29.80;89.90;;;;;;4964286;28;208332;-71
2023/06/09 09:17:14;;;;;;;15.88;4.40;;;30.20;89.40;;;;;;5006074;28;20513;-70
2023/06/09 09:19:47;;;;;;;12.55;4.25;;;29.90;88.20;;;;;;4971856;28;209546;-71
2023/06/09 09:22:13;;;;;;;11.88;3.72;;;29.70;87.80;;;;;;5013534;28;20046;-70
2023/06/09 09:24:46;;;;;;;11.13;4.18;;;30.00;88.20;;;;;;4968453;28;206885;-71
2023/06/09 09:27:17;;;;;;;12.40;3.83;;;30.50;87.90;;;;;;4984136;28;20065;-71
2023/06/09 09:29:44;;;;;;;12.40;3.92;;;30.80;87.90;;;;;;4972189;28;209479;-72
2023/06/09 09:32:10;;;;;;;12.20;3.95;;;31.00;87.60;;;;;;5006345;28;20057;-71
2023/06/09 09:34:40;;;;;;;11.38;4.32;;;31.30;87.10;;;;;;4966432;28;215706;-71
2023/06/09 09:37:20;;;;;;;12.52;4.22;;;31.40;84.00;;;;;;4990786;28;20065;-69
2023/06/09 09:39:50;;;;;;;13.02;4.00;;;31.60;86.10;;;;;;4959107;28;209037;-70
2023/06/09 09:42:17;;;;;;;11.35;3.97;;;31.80;84.90;;;;;;5000893;28;20064;-70
2023/06/09 09:44:47;;;;;;;11.60;3.60;;;31.80;84.90;;;;;;4967000;28;208847;-70
2023/06/09 09:47:15;;;;;;;12.07;4.10;;;32.40;85.80;;;;;;5008271;28;20077;-69
2023/06/09 09:50:00;;;;;;;10.98;3.55;;;32.80;83.60;;;;;;4965562;28;211580;-70
2023/06/09 09:52:28;;;;;;;10.30;3.90;;;33.00;83.90;;;;;;5004162;28;20053;-71
2023/06/09 09:54:58;;;;;;;10.70;3.90;;;33.50;82.40;;;;;;4952696;28;240127;-69
2023/06/09 09:57:28;;;;;;;9.98;3.75;;;33.60;80.30;;;;;;4988411;28;20050;-70
2023/06/09 09:59:56;;;;;;;9.90;4.00;;;33.40;80.70;;;;;;4963757;28;208552;-71
2023/06/09 10:02:26;;;;;;;13.50;4.15;;;33.10;81.90;;;;;;4990215;28;20058;-70
2023/06/09 10:04:56;;;;;;;11.43;4.05;;;33.40;81.10;;;;;;4950407;28;209398;-70
2023/06/09 10:07:26;;;;;;;10.45;3.60;;;33.90;80.40;;;;;;5008791;28;20054;-70
2023/06/09 10:09:54;;;;;;;15.43;3.83;;;34.10;79.10;;;;;;4968060;28;207070;-70
2023/06/09 10:12:20;;;;;;;12.80;3.40;;;34.00;80.10;;;;;;5010247;28;20519;-70
2023/06/09 10:14:48;;;;;;;11.32;3.83;;;34.00;79.90;;;;;;4953264;28;208617;-70
2023/06/09 10:17:20;;;;;;;13.55;4.20;;;33.80;79.10;;;;;;5006079;28;20535;-70
2023/06/09 10:19:51;;;;;;;9.85;3.45;;;34.00;77.70;;;;;;4943525;28;208126;-71
2023/06/09 10:22:19;;;;;;;10.70;3.78;;;33.90;78.00;;;;;;4988342;28;20440;-71
2023/06/09 10:24:46;;;;;;;13.30;4.03;;;34.00;78.70;;;;;;4959146;28;208306;-71
2023/06/09 10:27:15;;;;;;;14.75;3.85;;;34.00;77.80;;;;;;4984579;28;20649;-71
2023/06/09 10:29:42;;;;;;;10.75;3.45;;;33.70;76.70;;;;;;4948217;28;206757;-71
2023/06/09 10:32:11;;;;;;;11.77;4.05;;;33.40;76.30;;;;;;5011073;28;20077;-71
2023/06/09 10:34:39;;;;;;;11.63;3.40;;;33.50;77.00;;;;;;4967356;28;227657;-70
2023/06/09 10:37:06;;;;;;;12.63;3.50;;;33.60;76.70;;;;;;4995046;28;20058;-70
2023/06/09 10:39:44;;;;;;;9.55;3.30;;;33.50;77.20;;;;;;4950610;28;212131;-71
2023/06/09 10:42:25;;;;;;;9.32;3.30;;;33.80;75.70;;;;;;4993311;28;20050;-71
2023/06/09 10:45:13;;;;;;;10.30;3.45;;;34.10;75.00;;;;;;4951023;28;206348;-71
2023/06/09 10:47:47;;;;;;;11.63;3.80;;;34.40;75.90;;;;;;5016220;28;20046;-72
2023/06/09 10:50:24;;;;;;;12.55;3.80;;;34.00;75.10;;;;;;4968015;28;209075;-71
2023/06/09 10:52:55;;;;;;;10.38;3.60;;;34.00;75.00;;;;;;5007824;28;20053;-69
2023/06/09 10:55:27;;;;;;;12.75;3.70;;;34.20;75.30;;;;;;4963556;28;207062;-71
2023/06/09 10:57:54;;;;;;;11.68;3.45;;;34.40;74.70;;;;;;5010423;28;20054;-71
2023/06/09 11:00:21;;;;;;;9.45;3.35;;;34.50;74.40;;;;;;4955634;28;215859;-71
2023/06/09 11:03:06;;;;;;;10.40;3.45;;;34.20;74.50;;;;;;4988706;28;20050;-71
2023/06/09 11:05:42;;;;;;;10.35;3.92;;;34.60;74.10;;;;;;4966721;28;208327;-71
2023/06/09 11:08:08;;;;;;;12.05;3.47;;;34.40;72.40;;;;;;4965493;28;211402;-71
2023/06/09 11:10:36;;;;;;;12.93;3.78;;;34.40;73.50;;;;;;4979784;28;206775;-72
2023/06/09 11:13:23;;;;;;;10.15;3.80;;;34.70;73.70;;;;;;5041016;28;20065;-72
2023/06/09 11:15:57;;;;;;;9.40;3.20;;;35.10;73.20;;;;;;4951562;28;20049;-71
2023/06/09 11:18:23;;;;;;;9.27;3.35;;;34.90;71.40;;;;;;4933735;28;212079;-71
2023/06/09 11:21:09;;;;;;;9.60;3.20;;;34.80;73.20;;;;;;4984382;28;20061;-72
2023/06/09 11:23:55;;;;;;;9.93;3.38;;;35.20;71.00;;;;;;4932966;28;210766;-71
2023/06/09 11:26:22;;;;;;;12.10;3.55;;;35.70;71.90;;;;;;4996943;28;20412;-71
2023/06/09 11:28:49;;;;;;;11.52;3.40;;;35.20;71.00;;;;;;4970949;28;206953;-71
2023/06/09 11:31:15;;;;;;;10.40;3.38;;;35.30;69.80;;;;;;5006271;28;20049;-72
2023/06/09 11:33:45;;;;;;;11.02;3.35;;;35.10;69.90;;;;;;4955040;28;214853;-71
2023/06/09 11:36:20;;;;;;;11.65;3.30;;;35.40;70.30;;;;;;4995071;28;20516;-72
2023/06/09 11:38:47;;;;;;;12.98;3.70;;;35.50;70.50;;;;;;4937521;28;209286;-72
2023/06/09 11:41:18;;;;;;;9.35;3.20;;;35.80;70.10;;;;;;5016176;28;20057;-72
2023/06/09 11:43:51;;;;;;;10.55;3.60;;;35.80;68.70;;;;;;4994355;28;210035;-72
2023/06/09 11:46:18;;;;;;;10.77;3.38;;;35.40;67.50;;;;;;4993706;28;20054;-72
2023/06/09 11:49:01;;;;;;;13.23;3.28;;;35.50;68.30;;;;;;4942807;28;209680;-73
2023/06/09 11:51:27;;;;;;;9.95;3.25;;;36.40;68.70;;;;;;5009414;28;20054;-72
2023/06/09 11:53:53;;;;;;;10.32;3.20;;;36.90;67.90;;;;;;4926327;28;210780;-72
2023/06/09 11:56:21;;;;;;;11.07;3.40;;;36.30;66.80;;;;;;4997053;28;20054;-73
2023/06/09 11:58:48;;;;;;;10.60;3.30;;;35.90;66.90;;;;;;4931962;28;207618;-72
2023/06/09 12:01:15;;;;;;;13.40;3.60;;;35.60;66.70;;;;;;5011578;28;20054;-72
2023/06/09 12:03:41;;;;;;;10.55;3.33;;;35.40;66.40;;;;;;4938046;28;209892;-71
2023/06/09 12:06:08;;;;;;;10.07;3.25;;;35.70;66.40;;;;;;4992958;28;20065;-72
2023/06/09 12:08:34;;;;;;;10.02;3.30;;;35.50;66.40;;;;;;4972048;28;206009;-72
2023/06/09 12:11:01;;;;;;;9.50;3.30;;;35.70;66.40;;;;;;5003006;28;20485;-72
2023/06/09 12:13:27;;;;;;;9.00;3.30;;;35.40;65.70;;;;;;4935394;28;208837;-71
2023/06/09 12:15:54;;;;;;;9.68;2.88;;;35.40;65.90;;;;;;5025242;28;20486;-72
2023/06/09 12:18:21;;;;;;;13.05;3.45;;;35.70;66.20;;;;;;4948511;28;212505;-72
2023/06/09 12:20:50;;;;;;;11.52;3.63;;;35.40;64.50;;;;;;5012707;28;20050;-71
2023/06/09 12:23:17;;;;;;;10.20;3.40;;;35.20;64.40;;;;;;4981470;28;208988;-71
2023/06/09 12:25:45;;;;;;;10.80;3.47;;;34.70;64.00;;;;;;4983310;28;20419;-71
2023/06/09 12:28:18;;;;;;;9.35;3.17;;;34.90;64.10;;;;;;4939532;28;222188;-71
2023/06/09 12:30:49;;;;;;;11.25;3.50;;;35.10;64.70;;;;;;5015128;28;20098;-72
2023/06/09 12:33:23;;;;;;;13.10;3.60;;;35.40;64.50;;;;;;4953811;28;207232;-71
2023/06/09 12:35:55;;;;;;;8.48;3.45;;;35.90;65.20;;;;;;5030619;28;20058;-71
2023/06/09 12:38:24;;;;;;;9.40;3.40;;;36.00;63.70;;;;;;4967239;28;208592;-70
2023/06/09 12:40:52;;;;;;;9.18;3.00;;;36.10;63.00;;;;;;4997855;28;20062;-71